Aliquippa, Pennsylvania
Current Conditions -  °F | °C
As of 4:31 AM on Thursday 23 Oct 2014 (Local Time) from KPIT Reporting Station
Broken Clouds Broken Clouds  
Wind Chill: 40°   Ceiling: 2100
Heat Index: 44°   Visibility: 10mi
Dew Point: 41°   Wind: 8mph
Humidity: 89%   Direction: 320°NW
Pressure: 30.13"   Gusts: NA
Location:  40.62°N, 80.24°W
Report Text: KPIT 230831Z 32007KT 10SM BKN021 07/05 A3013 RMK AO2 T00670050
Loading
Personal Weather Stations






























Interactive Weather Map
Tropical Storm Tracking
New forecast layout! Learn more

10-Day Weather Forecast

Advertisements
Track Severe Weather on mobile